Mc Alester Regional Airport
KMLC : rendu visible

Aérodrome :











RETROUVEZ-NOUS SUR...

 
LOGIN :

S'inscrire | Disclaimer

   EN    FR    IT 

 









Légende :    VFR   VFR Marginal   IFR   IFR Intensif   IFR Très Intensif
Visi : 
Plafond : 
>= 8 km
>= 3000ft
5 à 8 km
1000 à 3000 ft
1500m à 5 km
500 à 1000 ft
800 à 1500m
200 à 500 ft
< 800m
< 200 ft
Symboles :   Orages  Brouillard  Fortes neiges  Fortes précipitations  Vent > 20 kt






- Altitude de l'aérodrome : 770 ft


KMLC - Mc Alester Regional

DERNIER METAR :
  • 072353Z AUTO 15006G15KT 10SM CLR 31/23 A2999 RMK AO2 SLP144 T03060233 10322 20261 56016

METARs EXPIRÉS :
  • 072253Z AUTO 16008KT 120V190 10SM CLR 32/23 A3000 RMK AO2 SLP148 T03170233
  • 072153Z AUTO VRB05KT 10SM FEW038 30/24 A3002 RMK AO2 SLP154 T03000244

TAF KMLC
Valide du 08 à 00h jusqu'au 09 à 00h UTC


072322Z 0800/0824 15007KT P6SM SCT250
FM081500 19011KT P6SM SCT250
FIR KZFW / Amérique du Nord



MET'MAP, la Météo Aéronautique d'un coup d'oeil ! - Copyright ORBIFLY Décembre 2007 - Disclaimer

ORBIFLY MET'MAP TEAM :

Programmation & Développement : Alexandra Zaïnal
Sur une idée originale de : Baudouin d'Aumeries
Assistance à la programmation : Marc-Olivier Méhu
Soutien technique & logistique : Manuel Goepfert

Contact : metmap@orbifly.com




SOURCES & CREDITS :

   NOAA       Earth
Advisory